Time;durP1;ratioP1;P1;durP2;ratioP2;P2;SDS_P1;SDS_P2;PMS_P1;PMS_P2;Temp;Humidity;BMP_temperature;BMP_pressure;BME280_temperature;BME280_humidity;BME280_pressure;Samples;Min_cycle;Max_cycle;Signal;HPM_P1;HPM_P2
2022/08/07 00:01:20;;;;;;;9.10;7.50;;;12.40;99.90;;;;;;5062323;28;20095;-70
2022/08/07 00:03:46;;;;;;;9.13;7.40;;;12.40;99.90;;;;;;5063450;28;20122;-70
2022/08/07 00:06:12;;;;;;;8.48;7.47;;;12.30;99.90;;;;;;5062289;28;20144;-70
2022/08/07 00:08:38;;;;;;;7.70;6.55;;;12.20;99.90;;;;;;5065416;28;20037;-70
2022/08/07 00:11:04;;;;;;;8.57;7.55;;;12.20;99.90;;;;;;5062556;28;20067;-70
2022/08/07 00:13:30;;;;;;;8.07;7.10;;;12.20;99.90;;;;;;5063432;28;20427;-70
2022/08/07 00:15:56;;;;;;;11.57;7.68;;;12.10;99.90;;;;;;5056577;28;20037;-70
2022/08/07 00:18:25;;;;;;;9.20;7.63;;;12.10;99.90;;;;;;5058030;28;20052;-70
2022/08/07 00:21:05;;;;;;;9.95;7.72;;;12.10;99.90;;;;;;5058466;28;20048;-70
2022/08/07 00:23:32;;;;;;;12.13;7.90;;;12.00;99.90;;;;;;5051991;28;20380;-70
2022/08/07 00:25:59;;;;;;;10.10;7.75;;;11.90;99.90;;;;;;5061304;28;20491;-70
2022/08/07 00:28:25;;;;;;;8.07;6.63;;;11.90;99.90;;;;;;5064133;28;20047;-70
2022/08/07 00:30:50;;;;;;;11.20;6.95;;;11.80;99.90;;;;;;5041297;28;20040;-70
2022/08/07 00:33:16;;;;;;;7.53;6.70;;;11.80;99.90;;;;;;5047588;28;20102;-70
2022/08/07 00:35:42;;;;;;;9.75;6.68;;;11.80;99.90;;;;;;5062873;28;20052;-70
2022/08/07 00:38:08;;;;;;;7.13;6.43;;;11.70;99.90;;;;;;5061622;28;20124;-70
2022/08/07 00:40:34;;;;;;;8.90;6.95;;;11.70;99.90;;;;;;5062710;28;20127;-70
2022/08/07 00:42:59;;;;;;;7.03;6.30;;;11.70;99.90;;;;;;5063226;28;20116;-70
2022/08/07 00:45:25;;;;;;;8.60;6.82;;;11.70;99.90;;;;;;5040868;28;20411;-70
2022/08/07 00:47:51;;;;;;;7.90;5.70;;;11.70;99.90;;;;;;5049741;28;20050;-70
2022/08/07 00:50:17;;;;;;;8.00;6.53;;;11.70;99.90;;;;;;5060805;28;20032;-70
2022/08/07 00:52:43;;;;;;;7.57;6.18;;;11.70;99.90;;;;;;5060155;28;20063;-70
2022/08/07 00:55:09;;;;;;;7.40;5.90;;;11.70;99.90;;;;;;5062623;28;20059;-70
2022/08/07 00:57:35;;;;;;;8.52;6.63;;;11.70;99.90;;;;;;5059482;28;20126;-70
2022/08/07 01:00:04;;;;;;;7.70;6.82;;;11.70;99.90;;;;;;5046356;28;20614;-71
2022/08/07 01:02:30;;;;;;;8.02;6.65;;;11.60;99.90;;;;;;5065329;28;20041;-70
2022/08/07 01:04:57;;;;;;;9.10;6.95;;;11.60;99.90;;;;;;5059656;28;20066;-70
2022/08/07 01:07:23;;;;;;;9.85;7.10;;;11.50;99.90;;;;;;5051867;28;20076;-70
2022/08/07 01:09:48;;;;;;;10.23;7.20;;;11.50;99.90;;;;;;5042791;28;20574;-70
2022/08/07 01:12:15;;;;;;;8.45;7.53;;;11.50;99.90;;;;;;5065128;28;20427;-70
2022/08/07 01:14:41;;;;;;;7.43;6.60;;;11.50;99.90;;;;;;5064091;28;20048;-70
2022/08/07 01:17:09;;;;;;;9.15;7.22;;;11.50;99.90;;;;;;5065744;28;20126;-70
2022/08/07 01:19:36;;;;;;;7.53;6.72;;;11.40;99.90;;;;;;5045093;28;20048;-70
2022/08/07 01:22:02;;;;;;;8.13;7.13;;;11.40;99.90;;;;;;5059053;28;20036;-70
2022/08/07 01:24:29;;;;;;;9.23;6.97;;;11.40;99.90;;;;;;5062934;28;20029;-70
2022/08/07 01:26:55;;;;;;;9.00;7.30;;;11.40;99.90;;;;;;5047331;28;20041;-70
2022/08/07 01:29:27;;;;;;;8.43;7.10;;;11.40;99.90;;;;;;5055082;28;20052;-70
2022/08/07 01:31:53;;;;;;;8.45;7.00;;;11.40;99.90;;;;;;5075240;28;20047;-70
2022/08/07 01:34:19;;;;;;;9.95;7.25;;;11.40;99.90;;;;;;5059307;28;20047;-71
2022/08/07 01:36:48;;;;;;;10.52;7.20;;;11.40;99.90;;;;;;5042855;28;20044;-71
2022/08/07 01:39:14;;;;;;;8.60;7.55;;;11.40;99.90;;;;;;5059797;28;20063;-71
2022/08/07 01:41:44;;;;;;;9.38;7.90;;;11.40;99.90;;;;;;5063446;28;20029;-71
2022/08/07 01:44:10;;;;;;;10.27;7.75;;;11.40;99.90;;;;;;5057978;28;20072;-71
2022/08/07 01:46:38;;;;;;;9.95;7.70;;;11.40;99.90;;;;;;5062837;28;20033;-71
2022/08/07 01:49:04;;;;;;;9.77;7.85;;;11.50;99.90;;;;;;5054430;28;20346;-71
2022/08/07 01:51:31;;;;;;;8.55;7.60;;;11.50;99.90;;;;;;5062530;28;20044;-71
2022/08/07 01:53:59;;;;;;;9.15;7.82;;;11.50;99.90;;;;;;5054914;28;20128;-70
2022/08/07 01:56:55;;;;;;;8.43;7.25;;;11.60;99.90;;;;;;5054765;28;20534;-70
2022/08/07 01:59:32;;;;;;;9.57;7.15;;;11.50;99.90;;;;;;5059306;28;20048;-70
2022/08/07 02:02:04;;;;;;;8.50;7.43;;;11.60;99.90;;;;;;5060034;28;20063;-71
2022/08/07 02:04:48;;;;;;;9.60;6.93;;;11.70;99.90;;;;;;5060415;28;20090;-71
2022/08/07 02:07:16;;;;;;;8.45;7.35;;;11.70;99.90;;;;;;5048858;28;20098;-71
2022/08/07 02:09:45;;;;;;;8.73;5.88;;;11.70;99.90;;;;;;5060328;28;20064;-71
2022/08/07 02:12:16;;;;;;;7.80;6.57;;;11.70;99.90;;;;;;5043956;28;20040;-70
2022/08/07 02:14:48;;;;;;;9.23;6.90;;;11.70;99.90;;;;;;5057196;28;20391;-70
2022/08/07 02:17:15;;;;;;;8.10;7.00;;;11.70;99.90;;;;;;5039213;28;20106;-71
2022/08/07 02:19:44;;;;;;;8.20;6.90;;;11.80;99.90;;;;;;5047560;28;20144;-70
2022/08/07 02:22:12;;;;;;;9.57;7.07;;;11.70;99.90;;;;;;5058241;28;20044;-70
2022/08/07 02:24:42;;;;;;;7.60;6.28;;;11.80;99.90;;;;;;5049307;28;20440;-71
2022/08/07 02:27:08;;;;;;;7.72;6.93;;;11.70;99.90;;;;;;5058292;28;20510;-71
2022/08/07 02:29:35;;;;;;;8.60;6.78;;;11.80;99.90;;;;;;5061501;28;20570;-70
2022/08/07 02:32:03;;;;;;;9.10;6.63;;;11.80;99.90;;;;;;5062329;28;20044;-70
2022/08/07 02:34:29;;;;;;;9.18;6.97;;;11.90;99.90;;;;;;5063048;28;20124;-70
2022/08/07 02:36:57;;;;;;;7.43;6.32;;;11.90;99.90;;;;;;5055129;28;20037;-70
2022/08/07 02:39:24;;;;;;;7.13;6.38;;;11.90;99.90;;;;;;5058815;28;20534;-70
2022/08/07 02:41:52;;;;;;;7.70;6.53;;;11.90;99.90;;;;;;5058623;28;20423;-71
2022/08/07 02:44:19;;;;;;;7.85;6.55;;;11.90;99.90;;;;;;5042963;28;20037;-71
2022/08/07 02:46:49;;;;;;;8.65;6.20;;;11.80;99.90;;;;;;5059681;28;20053;-71
2022/08/07 02:49:15;;;;;;;8.27;6.53;;;11.80;99.90;;;;;;5058641;28;20427;-71
2022/08/07 02:51:43;;;;;;;9.05;6.28;;;11.70;99.90;;;;;;5045249;28;20119;-71
2022/08/07 02:54:11;;;;;;;8.38;6.32;;;11.70;99.90;;;;;;5061586;28;20057;-71
2022/08/07 02:56:39;;;;;;;7.30;6.20;;;11.70;99.90;;;;;;5058710;28;20519;-70
2022/08/07 02:59:09;;;;;;;11.40;6.70;;;11.70;99.90;;;;;;5060222;28;20041;-70
2022/08/07 03:01:37;;;;;;;9.50;6.68;;;11.60;99.90;;;;;;5062255;28;20041;-70
2022/08/07 03:04:05;;;;;;;7.97;6.65;;;11.60;99.90;;;;;;5062248;28;20595;-70
2022/08/07 03:06:33;;;;;;;8.20;6.88;;;11.60;99.90;;;;;;5058412;28;20072;-71
2022/08/07 03:09:03;;;;;;;8.18;6.88;;;11.50;99.90;;;;;;5066346;28;20059;-70
2022/08/07 03:11:31;;;;;;;6.93;6.22;;;11.40;99.90;;;;;;5040006;28;20377;-71
2022/08/07 03:13:57;;;;;;;6.70;6.00;;;11.40;99.90;;;;;;5067605;28;20043;-70
2022/08/07 03:16:23;;;;;;;7.85;5.95;;;11.40;99.90;;;;;;5044354;28;20460;-70
2022/08/07 03:18:50;;;;;;;7.43;6.55;;;11.30;99.90;;;;;;5065689;28;20040;-71
2022/08/07 03:21:16;;;;;;;7.88;6.63;;;11.30;99.90;;;;;;5052760;28;20040;-70
2022/08/07 03:23:44;;;;;;;7.82;7.05;;;11.30;99.90;;;;;;5066345;28;20137;-70
2022/08/07 03:26:14;;;;;;;9.80;7.10;;;11.20;99.90;;;;;;5062068;28;20392;-70
2022/08/07 03:28:41;;;;;;;11.02;7.40;;;11.30;99.90;;;;;;5056734;28;20045;-70
2022/08/07 03:31:19;;;;;;;9.27;7.40;;;11.20;99.90;;;;;;5061718;28;20631;-70
2022/08/07 03:34:01;;;;;;;7.35;6.65;;;11.10;99.90;;;;;;5060192;28;20048;-70
2022/08/07 03:36:29;;;;;;;11.57;7.20;;;11.10;99.90;;;;;;5063066;28;20533;-70
2022/08/07 03:39:02;;;;;;;8.40;6.40;;;11.10;99.90;;;;;;5062034;28;20053;-70
2022/08/07 03:41:29;;;;;;;8.52;6.85;;;11.00;99.90;;;;;;5063311;28;20044;-70
2022/08/07 03:43:56;;;;;;;8.82;7.22;;;11.10;99.90;;;;;;5064234;28;20158;-70
2022/08/07 03:46:23;;;;;;;8.32;6.70;;;10.90;99.90;;;;;;5067056;28;20048;-70
2022/08/07 03:48:49;;;;;;;8.20;6.72;;;11.00;99.90;;;;;;5061480;28;20048;-70
2022/08/07 03:51:16;;;;;;;8.43;6.40;;;11.00;99.90;;;;;;5062390;28;20516;-70
2022/08/07 03:53:42;;;;;;;7.65;6.70;;;10.90;99.90;;;;;;5058403;28;20044;-70
2022/08/07 03:56:10;;;;;;;7.88;6.15;;;10.90;99.90;;;;;;5065356;28;20049;-70
2022/08/07 03:58:37;;;;;;;9.35;7.13;;;10.90;99.90;;;;;;5084464;28;20060;-70
2022/08/07 04:01:03;;;;;;;7.05;6.20;;;10.90;99.90;;;;;;5063973;28;20045;-70
2022/08/07 04:03:30;;;;;;;7.55;6.20;;;10.90;99.90;;;;;;5061024;28;20454;-70
2022/08/07 04:05:56;;;;;;;8.43;7.18;;;10.90;99.90;;;;;;5063681;28;20036;-70
2022/08/07 04:08:22;;;;;;;7.68;6.80;;;10.80;99.90;;;;;;5065704;28;20546;-70
2022/08/07 04:10:48;;;;;;;6.78;5.90;;;10.80;99.90;;;;;;5064779;28;20084;-70
2022/08/07 04:13:15;;;;;;;7.78;6.57;;;10.90;99.90;;;;;;5060991;28;20037;-70
2022/08/07 04:15:42;;;;;;;8.73;6.00;;;10.90;99.90;;;;;;5056543;28;20047;-70
2022/08/07 04:18:10;;;;;;;8.13;6.47;;;10.80;99.90;;;;;;5043028;28;20057;-70
2022/08/07 04:20:35;;;;;;;7.13;5.75;;;10.80;99.90;;;;;;5063064;28;20455;-70
2022/08/07 04:23:01;;;;;;;7.13;6.38;;;10.80;99.90;;;;;;5059510;28;20040;-70
2022/08/07 04:25:28;;;;;;;7.78;5.85;;;10.80;99.90;;;;;;5057757;28;20041;-70
2022/08/07 04:27:54;;;;;;;8.15;6.90;;;10.80;99.90;;;;;;5060272;28;20160;-70
2022/08/07 04:30:19;;;;;;;7.85;6.68;;;10.70;99.90;;;;;;5056947;28;20044;-70
2022/08/07 04:32:45;;;;;;;8.23;6.60;;;10.80;99.90;;;;;;5063530;28;20040;-70
2022/08/07 04:35:12;;;;;;;8.77;6.78;;;10.80;99.90;;;;;;5060663;28;20048;-70
2022/08/07 04:37:37;;;;;;;8.40;6.78;;;10.80;99.90;;;;;;5062209;28;20041;-70
2022/08/07 04:40:04;;;;;;;8.68;6.93;;;10.80;99.90;;;;;;5057941;28;20416;-70
2022/08/07 04:42:33;;;;;;;8.27;7.30;;;10.80;99.90;;;;;;5062125;28;20040;-70
2022/08/07 04:45:00;;;;;;;7.60;6.60;;;10.80;99.90;;;;;;5040727;28;20048;-70
2022/08/07 04:47:40;;;;;;;9.73;7.13;;;10.90;99.90;;;;;;5066968;28;20040;-70
2022/08/07 04:50:42;;;;;;;9.32;6.63;;;10.90;99.90;;;;;;5064821;28;20037;-70
2022/08/07 04:53:23;;;;;;;9.10;7.90;;;10.90;99.90;;;;;;5054811;28;20219;-70
2022/08/07 04:56:00;;;;;;;9.40;7.28;;;11.00;99.90;;;;;;5043367;28;20099;-70
2022/08/07 04:58:41;;;;;;;10.70;7.55;;;11.00;99.90;;;;;;5046229;28;20060;-70
2022/08/07 05:01:19;;;;;;;8.05;7.10;;;11.10;99.90;;;;;;5060059;28;20049;-70
2022/08/07 05:04:29;;;;;;;8.27;6.50;;;11.20;99.90;;;;;;5058327;28;20043;-70
2022/08/07 05:07:09;;;;;;;8.95;6.82;;;11.30;99.90;;;;;;5040133;28;20053;-70
2022/08/07 05:09:48;;;;;;;10.10;7.93;;;11.40;99.90;;;;;;5046731;28;20147;-70
2022/08/07 05:12:18;;;;;;;8.82;7.47;;;11.50;99.90;;;;;;5063605;28;20044;-70
2022/08/07 05:14:46;;;;;;;8.85;7.40;;;11.70;99.90;;;;;;5060366;28;20033;-70
2022/08/07 05:17:17;;;;;;;9.20;7.20;;;11.80;99.90;;;;;;5044311;28;20041;-70
2022/08/07 05:19:50;;;;;;;9.43;7.40;;;11.90;99.90;;;;;;5047024;28;20060;-70
2022/08/07 05:22:19;;;;;;;8.55;7.38;;;12.10;99.90;;;;;;5044533;28;20057;-70
2022/08/07 05:24:47;;;;;;;10.95;7.40;;;12.10;99.90;;;;;;5061165;28;20049;-70
2022/08/07 05:27:15;;;;;;;8.65;7.75;;;12.30;99.90;;;;;;5061344;28;20102;-70
2022/08/07 05:29:43;;;;;;;11.07;9.13;;;12.40;99.90;;;;;;5052598;28;20063;-70
2022/08/07 05:32:11;;;;;;;9.48;8.18;;;12.50;99.90;;;;;;5055602;28;20044;-70
2022/08/07 05:34:40;;;;;;;10.18;9.07;;;12.60;99.90;;;;;;5063237;28;20350;-70
2022/08/07 05:37:07;;;;;;;14.02;9.23;;;12.70;99.90;;;;;;5062038;28;20032;-70
2022/08/07 05:39:35;;;;;;;10.20;9.10;;;12.90;99.90;;;;;;5064152;28;20044;-70
2022/08/07 05:42:02;;;;;;;11.32;9.68;;;13.10;99.90;;;;;;5062635;28;20039;-70
2022/08/07 05:44:29;;;;;;;11.82;9.77;;;13.20;99.90;;;;;;5062380;28;21339;-70
2022/08/07 05:46:55;;;;;;;11.73;9.38;;;13.40;99.90;;;;;;5064438;28;20037;-70
2022/08/07 05:49:22;;;;;;;11.52;10.18;;;13.60;99.90;;;;;;5061915;28;20049;-70
2022/08/07 05:51:48;;;;;;;12.30;11.00;;;13.70;99.90;;;;;;5056012;28;20037;-70
2022/08/07 05:54:15;;;;;;;12.52;10.88;;;13.90;99.90;;;;;;5055795;28;20059;-70
2022/08/07 05:56:42;;;;;;;11.70;10.32;;;14.10;99.90;;;;;;5052347;28;20051;-70
2022/08/07 05:59:14;;;;;;;12.15;10.90;;;14.20;99.90;;;;;;5059954;28;20074;-70
2022/08/07 06:01:40;;;;;;;13.13;9.98;;;14.30;99.90;;;;;;5060239;28;20128;-71
2022/08/07 06:04:08;;;;;;;12.15;9.95;;;14.50;99.90;;;;;;5060985;28;20166;-71
2022/08/07 06:06:34;;;;;;;13.95;10.68;;;14.50;99.90;;;;;;5043818;28;20045;-71
2022/08/07 06:09:01;;;;;;;12.70;10.98;;;14.60;99.90;;;;;;5041021;28;20133;-71
2022/08/07 06:11:27;;;;;;;12.18;10.60;;;14.70;99.90;;;;;;5055971;28;20135;-71
2022/08/07 06:13:53;;;;;;;14.02;10.63;;;14.80;99.90;;;;;;5057535;28;20049;-71
2022/08/07 06:16:22;;;;;;;13.07;11.68;;;14.90;99.90;;;;;;5051913;28;20040;-71
2022/08/07 06:18:48;;;;;;;13.18;11.77;;;15.00;99.90;;;;;;5052959;28;20567;-71
2022/08/07 06:21:17;;;;;;;12.32;10.45;;;15.20;99.90;;;;;;5058049;28;20135;-71
2022/08/07 06:23:43;;;;;;;12.85;11.10;;;15.30;99.90;;;;;;5063754;28;20144;-71
2022/08/07 06:26:12;;;;;;;16.88;10.60;;;15.50;99.90;;;;;;5059216;28;20120;-71
2022/08/07 06:28:56;;;;;;;11.43;10.23;;;15.60;99.90;;;;;;5060266;28;20049;-71
2022/08/07 06:31:22;;;;;;;;;;;15.80;99.90;;;;;;5062516;28;20049;-71
2022/08/07 06:33:48;;;;;;;11.05;9.75;;;15.90;99.90;;;;;;5063629;28;19974;-71
2022/08/07 06:36:14;;;;;;;13.80;10.80;;;16.00;99.90;;;;;;5060017;28;20140;-71
2022/08/07 06:38:43;;;;;;;12.43;11.10;;;16.20;99.90;;;;;;5050203;28;20152;-71
2022/08/07 06:41:16;;;;;;;11.52;10.40;;;16.30;99.90;;;;;;5043279;28;20530;-71
2022/08/07 06:43:43;;;;;;;14.52;10.23;;;16.40;99.90;;;;;;5071760;28;20044;-71
2022/08/07 06:46:09;;;;;;;10.00;9.00;;;16.60;99.90;;;;;;5061867;28;20044;-71
2022/08/07 06:48:35;;;;;;;9.88;8.95;;;16.70;99.90;;;;;;5065968;28;20692;-71
2022/08/07 06:51:05;;;;;;;13.15;9.55;;;16.80;99.90;;;;;;5064421;28;20080;-71
2022/08/07 06:53:35;;;;;;;10.07;8.85;;;17.00;99.90;;;;;;5063841;28;20059;-72
2022/08/07 06:56:04;;;;;;;10.57;8.85;;;17.10;99.90;;;;;;5062589;28;20041;-72
2022/08/07 06:58:33;;;;;;;10.45;8.18;;;17.20;99.90;;;;;;5065675;28;20052;-72
2022/08/07 07:00:59;;;;;;;9.88;7.97;;;17.30;99.90;;;;;;5057427;28;20520;-71
2022/08/07 07:03:25;;;;;;;7.80;5.75;;;17.50;99.90;;;;;;5057420;28;20067;-71
2022/08/07 07:05:51;;;;;;;7.78;6.72;;;17.60;99.90;;;;;;5057584;28;20052;-72
2022/08/07 07:08:16;;;;;;;7.70;5.32;;;17.70;99.90;;;;;;5056914;28;20049;-72
2022/08/07 07:10:42;;;;;;;5.93;5.10;;;17.80;99.90;;;;;;5059271;28;20052;-71
2022/08/07 07:13:18;;;;;;;5.05;4.57;;;17.80;99.90;;;;;;5062657;28;20431;-72
2022/08/07 07:15:49;;;;;;;7.53;5.30;;;17.80;99.90;;;;;;5063298;28;20544;-71
2022/08/07 07:18:29;;;;;;;5.60;5.03;;;18.00;99.90;;;;;;5067082;28;20045;-71
2022/08/07 07:20:56;;;;;;;5.60;3.92;;;18.00;99.90;;;;;;5062078;28;20420;-71
2022/08/07 07:23:23;;;;;;;5.30;4.30;;;18.20;99.90;;;;;;5069333;28;20044;-71
2022/08/07 07:25:52;;;;;;;5.22;4.68;;;18.30;99.90;;;;;;5068673;28;20114;-71
2022/08/07 07:28:22;;;;;;;5.65;5.13;;;18.50;99.90;;;;;;5065095;28;20063;-71
2022/08/07 07:31:02;;;;;;;5.22;4.30;;;18.70;99.90;;;;;;5056076;28;20048;-71
2022/08/07 07:33:31;;;;;;;4.25;3.65;;;18.90;99.90;;;;;;5045110;28;20132;-72
2022/08/07 07:35:57;;;;;;;4.93;3.85;;;19.10;99.90;;;;;;5059024;28;20091;-72
2022/08/07 07:38:26;;;;;;;4.68;3.38;;;19.30;99.90;;;;;;5064073;28;20400;-71
2022/08/07 07:40:56;;;;;;;3.10;2.60;;;19.50;99.90;;;;;;5064371;28;20507;-71
2022/08/07 07:43:24;;;;;;;4.13;3.03;;;19.50;99.90;;;;;;5062108;28;20052;-71
2022/08/07 07:45:52;;;;;;;2.70;1.40;;;19.70;99.90;;;;;;5060450;28;20045;-71
2022/08/07 07:48:23;;;;;;;2.75;2.42;;;19.90;98.70;;;;;;5060257;28;20554;-71
2022/08/07 07:50:51;;;;;;;2.40;1.60;;;20.00;97.80;;;;;;5067861;28;20846;-71
2022/08/07 07:53:20;;;;;;;1.85;1.73;;;20.00;96.10;;;;;;5064324;28;20115;-71
2022/08/07 07:55:45;;;;;;;2.38;0.70;;;20.10;96.10;;;;;;5054949;28;20053;-71
2022/08/07 07:58:13;;;;;;;2.17;1.00;;;20.20;95.90;;;;;;5061733;28;20511;-72
2022/08/07 08:00:41;;;;;;;2.25;1.00;;;20.40;95.50;;;;;;5058070;28;20043;-72
2022/08/07 08:03:11;;;;;;;1.52;0.73;;;20.60;92.80;;;;;;5061022;28;20349;-72
2022/08/07 08:05:40;;;;;;;2.33;1.60;;;20.70;93.30;;;;;;5059942;28;20045;-72
2022/08/07 08:08:08;;;;;;;2.53;1.95;;;20.70;92.00;;;;;;5063140;28;20045;-72
2022/08/07 08:10:35;;;;;;;2.85;2.40;;;20.70;91.70;;;;;;5045480;28;20037;-72
2022/08/07 08:13:02;;;;;;;2.83;2.40;;;20.90;92.40;;;;;;5077572;28;20073;-72
2022/08/07 08:15:32;;;;;;;2.50;2.22;;;21.00;92.00;;;;;;5055095;28;20049;-72
2022/08/07 08:17:59;;;;;;;3.28;2.42;;;21.30;91.50;;;;;;5051643;28;20125;-72
2022/08/07 08:20:30;;;;;;;2.90;2.10;;;21.70;91.00;;;;;;5064251;28;20040;-72
2022/08/07 08:28:28;;;;;;;2.80;1.83;;;23.60;82.50;;;;;;5059898;28;20134;-72
2022/08/07 08:30:59;;;;;;;3.05;2.30;;;24.20;79.20;;;;;;5062451;28;20036;-72
2022/08/07 08:33:30;;;;;;;2.63;2.28;;;24.60;77.60;;;;;;5062519;28;20127;-72
2022/08/07 08:35:56;;;;;;;2.88;2.10;;;24.90;76.20;;;;;;5049152;28;20043;-72
2022/08/07 08:38:26;;;;;;;2.72;2.15;;;25.30;73.90;;;;;;5055327;28;20049;-73
2022/08/07 08:41:11;;;;;;;2.40;1.75;;;25.30;70.70;;;;;;5063401;28;20055;-74
2022/08/07 08:44:00;;;;;;;3.28;1.70;;;25.50;68.10;;;;;;5052128;28;20123;-73
2022/08/07 08:46:36;;;;;;;3.05;2.22;;;25.70;66.50;;;;;;5063214;28;20054;-73
2022/08/07 08:49:29;;;;;;;3.97;2.30;;;25.50;64.30;;;;;;5057491;28;20049;-73
2022/08/07 08:52:25;;;;;;;2.80;1.90;;;25.20;62.10;;;;;;5052285;28;20071;-73
2022/08/07 08:54:58;;;;;;;2.85;1.98;;;25.20;62.70;;;;;;5062438;28;20102;-73
2022/08/07 08:57:35;;;;;;;;;;;24.70;64.40;;;;;;5057880;28;20063;-73
2022/08/07 09:00:08;;;;;;;2.30;1.63;;;24.20;61.40;;;;;;5059740;28;19952;-73
2022/08/07 09:02:37;;;;;;;4.40;1.92;;;23.50;65.90;;;;;;5057271;28;20477;-73
2022/08/07 09:05:41;;;;;;;2.25;1.70;;;23.10;68.70;;;;;;5067292;28;20063;-73
2022/08/07 09:08:40;;;;;;;2.10;1.80;;;23.60;68.00;;;;;;5044339;28;20178;-73
2022/08/07 09:11:18;;;;;;;2.53;1.90;;;24.00;64.70;;;;;;5038769;28;20048;-73
2022/08/07 09:14:08;;;;;;;2.78;1.60;;;23.60;62.90;;;;;;5058629;28;20421;-73
2022/08/07 09:16:51;;;;;;;4.10;1.95;;;23.30;65.20;;;;;;5062354;28;20484;-73
2022/08/07 09:20:00;;;;;;;2.78;1.85;;;23.90;68.20;;;;;;5060710;28;20036;-73
2022/08/07 09:22:50;;;;;;;1.60;1.50;;;24.30;64.20;;;;;;5061852;28;20086;-73
2022/08/07 09:25:25;;;;;;;2.95;1.80;;;24.00;64.70;;;;;;5063827;28;20048;-73
2022/08/07 09:28:05;;;;;;;2.83;1.63;;;23.60;66.50;;;;;;5053410;28;20029;-73
2022/08/07 09:31:06;;;;;;;2.08;1.58;;;23.90;67.00;;;;;;5051158;28;20186;-73
2022/08/07 09:34:06;;;;;;;2.85;1.70;;;24.10;63.00;;;;;;5057728;28;20119;-73
2022/08/07 09:36:52;;;;;;;2.20;1.77;;;24.20;62.70;;;;;;5056442;28;20169;-73
2022/08/07 09:39:21;;;;;;;2.63;1.52;;;24.10;64.70;;;;;;5058087;28;20057;-73
2022/08/07 09:41:59;;;;;;;2.95;1.70;;;24.40;65.00;;;;;;5061130;28;20040;-73
2022/08/07 09:44:52;;;;;;;2.28;1.23;;;24.90;64.80;;;;;;5059228;28;20430;-73
2022/08/07 09:47:43;;;;;;;1.95;1.38;;;25.40;62.60;;;;;;5058995;28;20040;-73
2022/08/07 09:50:52;;;;;;;2.00;1.35;;;25.90;58.60;;;;;;5064980;28;20051;-73
2022/08/07 09:53:21;;;;;;;2.20;1.13;;;26.10;58.00;;;;;;5036223;28;20198;-73
2022/08/07 09:55:56;;;;;;;1.67;1.00;;;26.00;59.10;;;;;;5053507;28;20053;-73
2022/08/07 09:58:25;;;;;;;2.28;1.30;;;25.90;59.00;;;;;;5057524;28;20587;-74
2022/08/07 10:01:14;;;;;;;3.15;1.17;;;25.90;57.90;;;;;;5037557;28;20381;-74
2022/08/07 10:03:58;;;;;;;2.72;1.30;;;26.00;54.90;;;;;;5059986;28;20052;-74
2022/08/07 10:06:44;;;;;;;1.65;0.95;;;26.10;57.60;;;;;;5044943;28;20041;-74
2022/08/07 10:09:29;;;;;;;1.67;1.02;;;26.20;57.80;;;;;;5053069;28;20361;-74
2022/08/07 10:12:04;;;;;;;2.20;0.90;;;26.30;57.00;;;;;;5068389;28;20041;-74
2022/08/07 10:14:35;;;;;;;1.33;0.90;;;26.30;57.40;;;;;;5055334;28;20346;-74
2022/08/07 10:17:38;;;;;;;1.55;1.05;;;26.10;56.00;;;;;;5056302;28;20041;-74
2022/08/07 10:20:44;;;;;;;2.50;1.30;;;26.00;55.00;;;;;;5041314;28;20045;-74
2022/08/07 10:23:12;;;;;;;1.65;0.88;;;25.90;55.30;;;;;;5044379;28;20298;-74
2022/08/07 10:25:48;;;;;;;1.73;1.02;;;25.90;58.80;;;;;;5059272;28;20056;-75
2022/08/07 10:28:45;;;;;;;1.88;1.10;;;26.10;57.30;;;;;;5061831;28;20484;-75
2022/08/07 10:31:27;;;;;;;2.13;0.85;;;26.30;53.50;;;;;;5059401;28;20369;-74
2022/08/07 10:34:07;;;;;;;1.95;0.80;;;26.30;53.70;;;;;;5040132;28;20767;-74
2022/08/07 10:36:57;;;;;;;1.10;1.00;;;26.50;54.90;;;;;;5041891;28;20494;-73
2022/08/07 10:39:41;;;;;;;1.98;0.98;;;26.90;54.80;;;;;;5059346;28;20044;-74
2022/08/07 10:42:38;;;;;;;2.63;0.90;;;27.40;52.50;;;;;;5052920;28;20037;-75
2022/08/07 10:45:29;;;;;;;5.30;1.00;;;27.50;53.10;;;;;;5044031;28;20450;-74
2022/08/07 10:48:23;;;;;;;1.50;0.90;;;27.50;52.90;;;;;;5063294;28;20053;-74
2022/08/07 10:51:11;;;;;;;1.95;1.00;;;27.40;50.50;;;;;;5046127;28;20053;-74
2022/08/07 10:53:55;;;;;;;1.23;0.80;;;27.60;52.50;;;;;;5060113;28;20045;-74
2022/08/07 10:56:45;;;;;;;2.83;1.13;;;27.80;50.90;;;;;;5059845;28;20041;-74
2022/08/07 10:59:38;;;;;;;0.95;0.73;;;28.00;50.60;;;;;;5061262;28;20052;-74
2022/08/07 11:02:36;;;;;;;2.17;1.00;;;27.90;48.40;;;;;;5058125;28;20052;-74
2022/08/07 11:05:23;;;;;;;1.83;0.80;;;27.40;48.40;;;;;;5063338;28;20110;-74
2022/08/07 11:08:17;;;;;;;1.38;0.85;;;27.40;49.30;;;;;;5051848;28;20041;-74
2022/08/07 11:11:04;;;;;;;2.60;1.10;;;27.30;47.80;;;;;;5060836;28;20047;-73
2022/08/07 11:13:41;;;;;;;1.52;0.77;;;27.10;48.20;;;;;;5057852;28;20041;-73
2022/08/07 11:16:30;;;;;;;1.73;0.85;;;26.90;49.20;;;;;;5065782;28;20052;-74
2022/08/07 11:19:17;;;;;;;1.20;0.63;;;27.00;49.80;;;;;;5045557;28;20056;-75
2022/08/07 11:22:23;;;;;;;1.58;0.63;;;27.20;49.00;;;;;;5051437;28;20047;-74
2022/08/07 11:25:07;;;;;;;1.05;0.60;;;27.30;48.80;;;;;;5059503;28;20069;-74
2022/08/07 11:27:42;;;;;;;;;;;27.30;47.10;;;;;;5040210;28;20543;-74
2022/08/07 11:30:13;;;;;;;1.02;0.85;;;27.20;47.20;;;;;;5056869;28;19927;-74
2022/08/07 11:32:51;;;;;;;1.15;0.75;;;27.30;47.60;;;;;;5057444;28;20577;-75
2022/08/07 11:35:24;;;;;;;0.77;0.60;;;27.40;46.40;;;;;;5059239;28;20041;-73
2022/08/07 11:38:29;;;;;;;;;;;27.50;46.50;;;;;;5063844;28;20045;-75
2022/08/07 11:41:13;;;;;;;1.40;0.77;;;27.50;45.30;;;;;;5030245;28;20025;-74
2022/08/07 11:43:53;;;;;;;2.25;0.80;;;27.80;45.40;;;;;;5045631;28;20037;-74
2022/08/07 11:47:08;;;;;;;1.52;0.60;;;28.10;44.20;;;;;;5061035;28;20122;-72
2022/08/07 11:49:55;;;;;;;2.10;0.77;;;28.40;42.60;;;;;;5037537;28;20135;-74
2022/08/07 11:52:24;;;;;;;1.92;0.60;;;28.50;44.90;;;;;;5055335;28;20037;-73
2022/08/07 11:55:22;;;;;;;3.15;0.90;;;28.80;43.50;;;;;;5043559;28;20049;-74
2022/08/07 11:58:14;;;;;;;2.10;1.02;;;28.70;42.70;;;;;;5058212;28;20041;-74
2022/08/07 12:00:57;;;;;;;1.17;0.50;;;28.40;43.40;;;;;;5059414;28;20618;-73
2022/08/07 12:03:56;;;;;;;2.15;0.85;;;28.30;42.30;;;;;;5059024;28;20106;-73
2022/08/07 12:06:49;;;;;;;1.27;0.88;;;28.40;44.00;;;;;;5050902;28;20049;-73
2022/08/07 12:09:27;;;;;;;2.35;0.60;;;28.60;42.60;;;;;;5063300;28;20052;-73
2022/08/07 12:12:11;;;;;;;2.90;0.75;;;28.70;42.20;;;;;;5063132;28;20052;-73
2022/08/07 12:14:46;;;;;;;2.33;0.55;;;28.70;40.60;;;;;;5068430;28;20469;-73
2022/08/07 12:17:15;;;;;;;1.83;0.80;;;28.70;40.50;;;;;;5042710;28;20045;-73
2022/08/07 12:19:50;;;;;;;1.60;0.70;;;28.90;41.90;;;;;;5057812;28;20049;-73
2022/08/07 12:22:21;;;;;;;1.48;0.70;;;29.10;41.70;;;;;;5042257;28;20048;-73
2022/08/07 12:28:01;;;;;;;1.63;0.60;;;29.50;40.10;;;;;;5062291;28;20463;-74
2022/08/07 12:30:33;;;;;;;1.10;0.60;;;29.60;40.20;;;;;;5041783;28;20049;-74
2022/08/07 12:33:06;;;;;;;0.95;0.60;;;29.80;41.00;;;;;;5060816;28;20049;-74
2022/08/07 12:35:33;;;;;;;1.70;0.70;;;30.20;41.10;;;;;;5057672;28;20052;-73
2022/08/07 12:37:59;;;;;;;1.52;0.90;;;30.40;39.60;;;;;;5048955;28;20041;-74
2022/08/07 12:40:29;;;;;;;1.40;0.70;;;30.20;40.90;;;;;;5038930;28;20538;-72
2022/08/07 12:43:00;;;;;;;1.00;0.50;;;30.10;41.20;;;;;;5063172;28;20072;-73
2022/08/07 12:45:34;;;;;;;1.52;0.65;;;30.00;39.60;;;;;;5054199;28;20082;-73
2022/08/07 12:48:35;;;;;;;1.23;0.70;;;29.90;40.00;;;;;;5061587;28;20045;-73
2022/08/07 12:51:12;;;;;;;0.82;0.57;;;29.70;41.10;;;;;;5055261;28;20415;-73
2022/08/07 12:54:08;;;;;;;1.55;0.70;;;29.70;40.90;;;;;;5059798;28;20083;-74
2022/08/07 12:56:41;;;;;;;1.58;0.70;;;29.80;39.00;;;;;;5060194;28;20080;-73
2022/08/07 12:59:10;;;;;;;1.50;0.70;;;29.50;42.50;;;;;;5043745;28;20048;-71
2022/08/07 13:01:38;;;;;;;0.70;0.47;;;29.50;41.10;;;;;;5057362;28;20049;-71
2022/08/07 13:04:23;;;;;;;1.45;0.90;;;29.50;41.10;;;;;;5062013;28;20048;-71
2022/08/07 13:07:07;;;;;;;1.67;0.60;;;29.40;39.80;;;;;;5051959;28;20113;-71
2022/08/07 13:10:11;;;;;;;1.08;0.70;;;29.40;40.00;;;;;;5061702;28;20086;-71
2022/08/07 13:13:03;;;;;;;1.23;0.60;;;29.30;40.20;;;;;;5056248;28;20159;-70
2022/08/07 13:15:37;;;;;;;1.40;0.90;;;28.60;41.20;;;;;;5060764;28;20115;-70
2022/08/07 13:18:43;;;;;;;1.63;0.63;;;27.90;42.70;;;;;;5060607;28;20060;-70
2022/08/07 13:21:17;;;;;;;1.20;0.80;;;27.90;43.70;;;;;;5046045;28;20052;-71
2022/08/07 13:24:03;;;;;;;1.98;0.85;;;28.10;44.50;;;;;;5060510;28;20052;-70
2022/08/07 13:27:04;;;;;;;0.82;0.60;;;28.10;44.40;;;;;;5056230;28;20159;-70
2022/08/07 13:29:50;;;;;;;1.13;0.80;;;28.20;46.00;;;;;;5060564;28;20044;-70